sensor_id;sensor_type;location;lat;lon;timestamp;pressure;altitude;pressure_sealevel;temperature;humidity
84746;BME280;74975;51.922;6.480;2024-02-04T00:01:54;102192.66;;;10.03;99.60
84746;BME280;74975;51.922;6.480;2024-02-04T00:04:25;102183.31;;;10.09;99.27
84746;BME280;74975;51.922;6.480;2024-02-04T00:07:10;102196.13;;;10.04;99.59
84746;BME280;74975;51.922;6.480;2024-02-04T00:09:41;102198.44;;;9.98;100.00
84746;BME280;74975;51.922;6.480;2024-02-04T00:12:15;102196.44;;;10.01;100.00
84746;BME280;74975;51.922;6.480;2024-02-04T00:14:47;102203.53;;;10.00;100.00
84746;BME280;74975;51.922;6.480;2024-02-04T00:17:22;102206.97;;;10.01;100.00
84746;BME280;74975;51.922;6.480;2024-02-04T00:20:05;102204.34;;;10.01;100.00
84746;BME280;74975;51.922;6.480;2024-02-04T00:22:39;102206.00;;;10.02;100.00
84746;BME280;74975;51.922;6.480;2024-02-04T00:25:11;102205.66;;;9.96;100.00
84746;BME280;74975;51.922;6.480;2024-02-04T00:27:46;102205.66;;;9.96;100.00
84746;BME280;74975;51.922;6.480;2024-02-04T00:30:24;102206.63;;;9.95;100.00
84746;BME280;74975;51.922;6.480;2024-02-04T00:33:06;102211.25;;;9.93;100.00
84746;BME280;74975;51.922;6.480;2024-02-04T00:35:47;102212.72;;;9.96;100.00
84746;BME280;74975;51.922;6.480;2024-02-04T00:38:28;102209.09;;;9.89;100.00
84746;BME280;74975;51.922;6.480;2024-02-04T00:41:02;102204.97;;;9.86;100.00
84746;BME280;74975;51.922;6.480;2024-02-04T00:43:36;102218.44;;;9.83;100.00
84746;BME280;74975;51.922;6.480;2024-02-04T00:46:14;102217.97;;;9.80;100.00
84746;BME280;74975;51.922;6.480;2024-02-04T00:48:55;102223.22;;;9.80;100.00
84746;BME280;74975;51.922;6.480;2024-02-04T00:51:27;102223.38;;;9.78;100.00
84746;BME280;74975;51.922;6.480;2024-02-04T00:54:01;102215.47;;;9.78;100.00
84746;BME280;74975;51.922;6.480;2024-02-04T00:56:40;102219.13;;;9.77;100.00
84746;BME280;74975;51.922;6.480;2024-02-04T00:59:11;102218.13;;;9.78;100.00
84746;BME280;74975;51.922;6.480;2024-02-04T01:01:47;102220.75;;;9.78;100.00
84746;BME280;74975;51.922;6.480;2024-02-04T01:04:23;102214.81;;;9.76;100.00
84746;BME280;74975;51.922;6.480;2024-02-04T01:07:00;102214.50;;;9.79;100.00
84746;BME280;74975;51.922;6.480;2024-02-04T01:09:38;102218.13;;;9.78;100.00
84746;BME280;74975;51.922;6.480;2024-02-04T01:12:16;102217.31;;;9.78;100.00
84746;BME280;74975;51.922;6.480;2024-02-04T01:14:48;102213.84;;;9.77;100.00
84746;BME280;74975;51.922;6.480;2024-02-04T01:17:23;102217.47;;;9.76;100.00
84746;BME280;74975;51.922;6.480;2024-02-04T01:19:58;102210.56;;;9.75;100.00
84746;BME280;74975;51.922;6.480;2024-02-04T01:22:37;102215.16;;;9.73;100.00
84746;BME280;74975;51.922;6.480;2024-02-04T01:25:18;102221.22;;;9.74;100.00
84746;BME280;74975;51.922;6.480;2024-02-04T01:27:59;102213.84;;;9.77;100.00
84746;BME280;74975;51.922;6.480;2024-02-04T01:30:38;102207.59;;;9.78;100.00
84746;BME280;74975;51.922;6.480;2024-02-04T01:33:13;102207.94;;;9.75;100.00
84746;BME280;74975;51.922;6.480;2024-02-04T01:35:51;102203.97;;;9.71;100.00
84746;BME280;74975;51.922;6.480;2024-02-04T01:38:29;102215.97;;;9.74;100.00
84746;BME280;74975;51.922;6.480;2024-02-04T01:41:00;102211.72;;;9.73;100.00
84746;BME280;74975;51.922;6.480;2024-02-04T01:43:31;102204.97;;;9.70;100.00
84746;BME280;74975;51.922;6.480;2024-02-04T01:46:10;102205.63;;;9.72;100.00
84746;BME280;74975;51.922;6.480;2024-02-04T01:48:49;102193.97;;;9.75;100.00
84746;BME280;74975;51.922;6.480;2024-02-04T01:51:31;102205.31;;;9.75;100.00
84746;BME280;74975;51.922;6.480;2024-02-04T01:54:14;102197.41;;;9.75;100.00
84746;BME280;74975;51.922;6.480;2024-02-04T01:56:50;102205.63;;;9.72;100.00
84746;BME280;74975;51.922;6.480;2024-02-04T01:59:23;102208.75;;;9.68;100.00
84746;BME280;74975;51.922;6.480;2024-02-04T02:02:04;102209.72;;;9.67;100.00
84746;BME280;74975;51.922;6.480;2024-02-04T02:04:42;102218.25;;;9.69;100.00
84746;BME280;74975;51.922;6.480;2024-02-04T02:07:14;102211.38;;;9.68;100.00
84746;BME280;74975;51.922;6.480;2024-02-04T02:09:55;102206.25;;;9.66;100.00
84746;BME280;74975;51.922;6.480;2024-02-04T02:12:42;102211.84;;;9.63;100.00
84746;BME280;74975;51.922;6.480;2024-02-04T02:15:31;102214.31;;;9.65;100.00
84746;BME280;74975;51.922;6.480;2024-02-04T02:18:17;102202.31;;;9.62;100.00
84746;BME280;74975;51.922;6.480;2024-02-04T02:24:54;102204.09;;;9.62;100.00
84746;BME280;74975;51.922;6.480;2024-02-04T02:27:04;102197.03;;;9.62;100.00
84746;BME280;74975;51.922;6.480;2024-02-04T02:29:42;102199.84;;;9.61;100.00
84746;BME280;74975;51.922;6.480;2024-02-04T02:32:20;102215.44;;;9.62;100.00
84746;BME280;74975;51.922;6.480;2024-02-04T02:34:52;102205.25;;;9.59;100.00
84746;BME280;74975;51.922;6.480;2024-02-04T02:37:59;102204.44;;;9.59;100.00
84746;BME280;74975;51.922;6.480;2024-02-04T02:40:42;102207.22;;;9.57;100.00
84746;BME280;74975;51.922;6.480;2024-02-04T02:43:24;102199.00;;;9.52;100.00
84746;BME280;74975;51.922;6.480;2024-02-04T02:45:59;102206.22;;;9.50;100.00
84746;BME280;74975;51.922;6.480;2024-02-04T02:48:37;102198.16;;;9.52;100.00
84746;BME280;74975;51.922;6.480;2024-02-04T02:51:14;102197.66;;;9.48;100.00
84746;BME280;74975;51.922;6.480;2024-02-04T02:53:49;102194.38;;;9.46;100.00
84746;BME280;74975;51.922;6.480;2024-02-04T02:56:25;102197.38;;;9.51;100.00
84746;BME280;74975;51.922;6.480;2024-02-04T02:59:05;102178.28;;;9.49;100.00
84746;BME280;74975;51.922;6.480;2024-02-04T03:01:41;102186.03;;;9.51;100.00
84746;BME280;74975;51.922;6.480;2024-02-04T03:04:15;102176.00;;;9.54;100.00
84746;BME280;74975;51.922;6.480;2024-02-04T03:06:51;102170.91;;;9.53;100.00
84746;BME280;74975;51.922;6.480;2024-02-04T03:09:26;102179.75;;;9.52;100.00
84746;BME280;74975;51.922;6.480;2024-02-04T03:12:04;102165.34;;;9.56;100.00
84746;BME280;74975;51.922;6.480;2024-02-04T03:14:43;102170.41;;;9.57;100.00
84746;BME280;74975;51.922;6.480;2024-02-04T03:17:21;102159.41;;;9.54;100.00
84746;BME280;74975;51.922;6.480;2024-02-04T03:19:57;102154.66;;;9.57;100.00
84746;BME280;74975;51.922;6.480;2024-02-04T03:22:41;102155.66;;;9.56;100.00
84746;BME280;74975;51.922;6.480;2024-02-04T03:25:16;102153.16;;;9.55;100.00
84746;BME280;74975;51.922;6.480;2024-02-04T03:27:54;102149.56;;;9.56;100.00
84746;BME280;74975;51.922;6.480;2024-02-04T03:30:32;102150.69;;;9.53;100.00
84746;BME280;74975;51.922;6.480;2024-02-04T03:33:09;102153.00;;;9.48;100.00
84746;BME280;74975;51.922;6.480;2024-02-04T03:35:46;102162.84;;;9.46;100.00
84746;BME280;74975;51.922;6.480;2024-02-04T03:38:22;102168.59;;;9.42;100.00
84746;BME280;74975;51.922;6.480;2024-02-04T03:41:01;102175.34;;;9.44;100.00
84746;BME280;74975;51.922;6.480;2024-02-04T03:43:45;102177.63;;;9.39;100.00
84746;BME280;74975;51.922;6.480;2024-02-04T03:46:28;102167.91;;;9.40;100.00
84746;BME280;74975;51.922;6.480;2024-02-04T03:49:08;102161.50;;;9.42;100.00
84746;BME280;74975;51.922;6.480;2024-02-04T03:51:45;102167.75;;;9.41;100.00
84746;BME280;74975;51.922;6.480;2024-02-04T03:54:20;102175.78;;;9.40;100.00
84746;BME280;74975;51.922;6.480;2024-02-04T03:57:00;102172.19;;;9.41;100.00
84746;BME280;74975;51.922;6.480;2024-02-04T03:59:32;102172.34;;;9.39;100.00
84746;BME280;74975;51.922;6.480;2024-02-04T04:02:07;102173.50;;;9.37;100.00
84746;BME280;74975;51.922;6.480;2024-02-04T04:04:45;102171.84;;;9.36;100.00
84746;BME280;74975;51.922;6.480;2024-02-04T04:07:20;102186.63;;;9.45;100.00
84746;BME280;74975;51.922;6.480;2024-02-04T04:09:55;102178.75;;;9.45;100.00
84746;BME280;74975;51.922;6.480;2024-02-04T04:12:30;102201.28;;;9.47;100.00
84746;BME280;74975;51.922;6.480;2024-02-04T04:15:01;102205.69;;;9.47;100.00
84746;BME280;74975;51.922;6.480;2024-02-04T04:17:46;102197.00;;;9.46;100.00
84746;BME280;74975;51.922;6.480;2024-02-04T04:20:24;102197.00;;;9.46;100.00
84746;BME280;74975;51.922;6.480;2024-02-04T04:23:03;102188.00;;;9.49;100.00
84746;BME280;74975;51.922;6.480;2024-02-04T04:25:35;102189.63;;;9.50;100.00
84746;BME280;74975;51.922;6.480;2024-02-04T04:28:09;102191.75;;;9.46;100.00
84746;BME280;74975;51.922;6.480;2024-02-04T04:30:45;102167.09;;;9.39;99.83
84746;BME280;74975;51.922;6.480;2024-02-04T04:33:23;102171.31;;;9.32;98.37
84746;BME280;74975;51.922;6.480;2024-02-04T04:35:54;102178.50;;;9.14;98.56
84746;BME280;74975;51.922;6.480;2024-02-04T04:38:29;102176.97;;;9.03;98.98
84746;BME280;74975;51.922;6.480;2024-02-04T04:41:00;102178.09;;;9.01;98.50
84746;BME280;74975;51.922;6.480;2024-02-04T04:43:36;102162.16;;;8.94;98.11
84746;BME280;74975;51.922;6.480;2024-02-04T04:46:08;102150.16;;;8.92;97.95
84746;BME280;74975;51.922;6.480;2024-02-04T04:48:46;102154.91;;;8.88;97.89
84746;BME280;74975;51.922;6.480;2024-02-04T04:51:18;102166.19;;;8.81;98.34
84746;BME280;74975;51.922;6.480;2024-02-04T04:53:52;102159.75;;;8.75;98.30
84746;BME280;74975;51.922;6.480;2024-02-04T04:56:27;102163.56;;;8.81;98.17
84746;BME280;74975;51.922;6.480;2024-02-04T04:58:59;102168.13;;;8.79;98.03
84746;BME280;74975;51.922;6.480;2024-02-04T05:01:40;102149.09;;;8.77;98.26
84746;BME280;74975;51.922;6.480;2024-02-04T05:04:16;102152.72;;;8.76;98.34
84746;BME280;74975;51.922;6.480;2024-02-04T05:06:50;102151.88;;;8.75;98.60
84746;BME280;74975;51.922;6.480;2024-02-04T05:09:31;102158.31;;;8.81;99.26
84746;BME280;74975;51.922;6.480;2024-02-04T05:12:08;102149.81;;;8.87;99.17
84746;BME280;74975;51.922;6.480;2024-02-04T05:14:50;102142.28;;;8.92;98.62
84746;BME280;74975;51.922;6.480;2024-02-04T05:17:26;102141.81;;;8.96;98.95
84746;BME280;74975;51.922;6.480;2024-02-04T05:20:03;102141.66;;;8.98;99.03
84746;BME280;74975;51.922;6.480;2024-02-04T05:22:39;102138.22;;;8.97;99.06
84746;BME280;74975;51.922;6.480;2024-02-04T05:25:14;102140.97;;;8.96;99.38
84746;BME280;74975;51.922;6.480;2024-02-04T05:27:54;102121.16;;;9.01;98.69
84746;BME280;74975;51.922;6.480;2024-02-04T05:30:31;102113.63;;;9.06;98.73
84746;BME280;74975;51.922;6.480;2024-02-04T05:33:03;102122.94;;;9.01;99.30
84746;BME280;74975;51.922;6.480;2024-02-04T05:35:35;102136.25;;;8.99;99.13
84746;BME280;74975;51.922;6.480;2024-02-04T05:38:12;102134.75;;;8.97;99.74
84746;BME280;74975;51.922;6.480;2024-02-04T05:40:46;102128.19;;;8.93;100.00
84746;BME280;74975;51.922;6.480;2024-02-04T05:43:21;102131.94;;;8.90;100.00
84746;BME280;74975;51.922;6.480;2024-02-04T05:45:53;102134.03;;;8.87;100.00
84746;BME280;74975;51.922;6.480;2024-02-04T05:48:26;102141.25;;;8.85;100.00
84746;BME280;74975;51.922;6.480;2024-02-04T05:50:57;102148.19;;;8.86;100.00
84746;BME280;74975;51.922;6.480;2024-02-04T05:53:28;102134.53;;;8.82;100.00
84746;BME280;74975;51.922;6.480;2024-02-04T05:55:59;102130.75;;;8.85;100.00
84746;BME280;74975;51.922;6.480;2024-02-04T05:58:34;102131.59;;;8.85;100.00
84746;BME280;74975;51.922;6.480;2024-02-04T06:01:06;102140.44;;;8.84;100.00
84746;BME280;74975;51.922;6.480;2024-02-04T06:03:37;102135.03;;;8.86;100.00
84746;BME280;74975;51.922;6.480;2024-02-04T06:06:18;102122.56;;;8.88;100.00
84746;BME280;74975;51.922;6.480;2024-02-04T06:08:51;102113.88;;;8.87;100.00
84746;BME280;74975;51.922;6.480;2024-02-04T06:11:26;102122.06;;;8.84;100.00
84746;BME280;74975;51.922;6.480;2024-02-04T06:14:02;102110.06;;;8.82;100.00
84746;BME280;74975;51.922;6.480;2024-02-04T06:20:07;102104.63;;;8.75;100.00
84746;BME280;74975;51.922;6.480;2024-02-04T06:58:12;102100.28;;;8.58;100.00
84746;BME280;74975;51.922;6.480;2024-02-04T07:00:51;102103.56;;;8.60;100.00
84746;BME280;74975;51.922;6.480;2024-02-04T07:03:24;102112.25;;;8.60;100.00
84746;BME280;74975;51.922;6.480;2024-02-04T07:06:06;102117.22;;;8.63;100.00
84746;BME280;74975;51.922;6.480;2024-02-04T07:08:38;102113.09;;;8.61;100.00
84746;BME280;74975;51.922;6.480;2024-02-04T07:11:10;102116.03;;;8.58;100.00
84746;BME280;74975;51.922;6.480;2024-02-04T07:13:41;102127.47;;;8.57;100.00
84746;BME280;74975;51.922;6.480;2024-02-04T07:16:11;102107.63;;;8.54;100.00
84746;BME280;74975;51.922;6.480;2024-02-04T07:18:50;102121.56;;;8.55;100.00
84746;BME280;74975;51.922;6.480;2024-02-04T07:21:20;102116.50;;;8.53;100.00
84746;BME280;74975;51.922;6.480;2024-02-04T07:23:46;102114.16;;;8.50;100.00
84746;BME280;74975;51.922;6.480;2024-02-04T07:26:12;102098.25;;;8.52;100.00
84746;BME280;74975;51.922;6.480;2024-02-04T07:28:43;102097.28;;;8.53;100.00
84746;BME280;74975;51.922;6.480;2024-02-04T07:31:15;102096.94;;;8.48;100.00
84746;BME280;74975;51.922;6.480;2024-02-04T07:33:45;102106.31;;;8.50;100.00
84746;BME280;74975;51.922;6.480;2024-02-04T07:36:34;102108.09;;;8.50;100.00
84746;BME280;74975;51.922;6.480;2024-02-04T07:39:11;102114.47;;;8.47;100.00
84746;BME280;74975;51.922;6.480;2024-02-04T07:41:37;102108.56;;;8.45;100.00
84746;BME280;74975;51.922;6.480;2024-02-04T07:44:06;102103.31;;;8.45;100.00
84746;BME280;74975;51.922;6.480;2024-02-04T07:46:34;102087.56;;;8.45;100.00
84746;BME280;74975;51.922;6.480;2024-02-04T07:49:01;102102.19;;;8.48;100.00
84746;BME280;74975;51.922;6.480;2024-02-04T07:51:26;102109.59;;;8.52;100.00
84746;BME280;74975;51.922;6.480;2024-02-04T07:53:52;102114.53;;;8.55;100.00
84746;BME280;74975;51.922;6.480;2024-02-04T07:56:21;102097.00;;;8.56;100.00
84746;BME280;74975;51.922;6.480;2024-02-04T07:58:50;102098.38;;;8.68;100.00
84746;BME280;74975;51.922;6.480;2024-02-04T08:01:18;102099.53;;;8.74;100.00
84746;BME280;74975;51.922;6.480;2024-02-04T08:03:46;102091.66;;;8.74;100.00
84746;BME280;74975;51.922;6.480;2024-02-04T08:06:16;102082.63;;;8.76;100.00
84746;BME280;74975;51.922;6.480;2024-02-04T08:08:44;102079.38;;;8.82;100.00
84746;BME280;74975;51.922;6.480;2024-02-04T08:11:20;102087.63;;;8.87;100.00
84746;BME280;74975;51.922;6.480;2024-02-04T08:13:52;102077.59;;;8.91;100.00
84746;BME280;74975;51.922;6.480;2024-02-04T08:16:24;102069.41;;;8.94;100.00
84746;BME280;74975;51.922;6.480;2024-02-04T08:18:51;102062.88;;;9.06;100.00
84746;BME280;74975;51.922;6.480;2024-02-04T08:21:41;102068.00;;;9.23;100.00
84746;BME280;74975;51.922;6.480;2024-02-04T08:24:16;102056.88;;;9.29;99.13
84746;BME280;74975;51.922;6.480;2024-02-04T08:26:47;102062.78;;;9.40;98.79
84746;BME280;74975;51.922;6.480;2024-02-04T08:29:15;102062.31;;;9.44;97.92
84746;BME280;74975;51.922;6.480;2024-02-04T08:31:43;102070.19;;;9.52;96.96
84746;BME280;74975;51.922;6.480;2024-02-04T08:34:15;102071.19;;;9.51;96.40
84746;BME280;74975;51.922;6.480;2024-02-04T08:36:45;102081.88;;;9.58;95.36
84746;BME280;74975;51.922;6.480;2024-02-04T08:39:11;102089.59;;;9.59;94.16
84746;BME280;74975;51.922;6.480;2024-02-04T08:41:40;102086.81;;;9.61;94.40
84746;BME280;74975;51.922;6.480;2024-02-04T08:44:12;102088.28;;;9.55;94.77
84746;BME280;74975;51.922;6.480;2024-02-04T08:46:44;102089.59;;;9.51;96.06
84746;BME280;74975;51.922;6.480;2024-02-04T08:49:20;102074.13;;;9.48;94.56
84746;BME280;74975;51.922;6.480;2024-02-04T08:51:53;102080.06;;;9.50;94.16
84746;BME280;74975;51.922;6.480;2024-02-04T08:54:34;102083.00;;;9.47;94.90
84746;BME280;74975;51.922;6.480;2024-02-04T08:56:59;102083.16;;;9.46;94.17
84746;BME280;74975;51.922;6.480;2024-02-04T08:59:27;102073.81;;;9.43;94.48
84746;BME280;74975;51.922;6.480;2024-02-04T09:01:57;102066.06;;;9.50;92.97
84746;BME280;74975;51.922;6.480;2024-02-04T09:04:28;102071.50;;;9.48;93.30
84746;BME280;74975;51.922;6.480;2024-02-04T09:06:56;102064.78;;;9.46;93.67
84746;BME280;74975;51.922;6.480;2024-02-04T09:09:23;102058.03;;;9.43;94.60
84746;BME280;74975;51.922;6.480;2024-02-04T09:11:48;102065.91;;;9.43;94.74
84746;BME280;74975;51.922;6.480;2024-02-04T09:14:17;102067.41;;;9.46;93.57
84746;BME280;74975;51.922;6.480;2024-02-04T09:16:46;102066.25;;;9.48;94.41
84746;BME280;74975;51.922;6.480;2024-02-04T09:19:23;102069.84;;;9.47;94.75
84746;BME280;74975;51.922;6.480;2024-02-04T09:21:49;102070.84;;;9.46;95.21
84746;BME280;74975;51.922;6.480;2024-02-04T09:24:17;102079.41;;;9.48;94.89
84746;BME280;74975;51.922;6.480;2024-02-04T09:26:46;102073.00;;;9.51;95.46
84746;BME280;74975;51.922;6.480;2024-02-04T09:29:14;102083.19;;;9.54;95.53
84746;BME280;74975;51.922;6.480;2024-02-04T09:31:46;102081.34;;;9.54;95.51
84746;BME280;74975;51.922;6.480;2024-02-04T09:34:19;102078.91;;;9.53;95.93
84746;BME280;74975;51.922;6.480;2024-02-04T09:36:55;102081.84;;;9.50;96.05
84746;BME280;74975;51.922;6.480;2024-02-04T09:39:24;102082.69;;;9.50;94.96
84746;BME280;74975;51.922;6.480;2024-02-04T09:41:55;102084.78;;;9.47;95.66
84746;BME280;74975;51.922;6.480;2024-02-04T09:44:30;102087.75;;;9.52;96.00
84746;BME280;74975;51.922;6.480;2024-02-04T09:47:03;102071.66;;;9.47;96.03
84746;BME280;74975;51.922;6.480;2024-02-04T09:49:30;102079.72;;;9.53;95.34
84746;BME280;74975;51.922;6.480;2024-02-04T09:51:59;102078.91;;;9.53;95.43
84746;BME280;74975;51.922;6.480;2024-02-04T09:54:27;102070.03;;;9.46;95.30
84746;BME280;74975;51.922;6.480;2024-02-04T09:56:56;102074.63;;;9.44;95.77
84746;BME280;74975;51.922;6.480;2024-02-04T09:59:28;102071.81;;;9.37;96.54
84746;BME280;74975;51.922;6.480;2024-02-04T10:01:55;102068.22;;;9.38;97.68
84746;BME280;74975;51.922;6.480;2024-02-04T10:04:24;102067.06;;;9.41;97.39
84746;BME280;74975;51.922;6.480;2024-02-04T10:06:54;102074.97;;;9.49;96.93
84746;BME280;74975;51.922;6.480;2024-02-04T10:09:28;102077.59;;;9.49;97.68
84746;BME280;74975;51.922;6.480;2024-02-04T10:11:56;102087.28;;;9.56;97.60
84746;BME280;74975;51.922;6.480;2024-02-04T10:14:22;102081.38;;;9.62;97.63
84746;BME280;74975;51.922;6.480;2024-02-04T10:16:57;102073.81;;;9.67;97.25
84746;BME280;74975;51.922;6.480;2024-02-04T10:19:27;102078.75;;;9.70;96.99
84746;BME280;74975;51.922;6.480;2024-02-04T10:22:08;102077.44;;;9.74;96.60
84746;BME280;74975;51.922;6.480;2024-02-04T10:24:34;102066.91;;;9.74;96.56
84746;BME280;74975;51.922;6.480;2024-02-04T10:26:59;102068.91;;;9.80;96.63
84746;BME280;74975;51.922;6.480;2024-02-04T10:29:28;102081.69;;;9.83;96.18
84746;BME280;74975;51.922;6.480;2024-02-04T10:31:55;102060.00;;;9.89;95.97
84746;BME280;74975;51.922;6.480;2024-02-04T10:34:27;102071.84;;;10.02;95.36
84746;BME280;74975;51.922;6.480;2024-02-04T10:36:53;102061.00;;;10.05;95.05
84746;BME280;74975;51.922;6.480;2024-02-04T10:39:18;102062.63;;;10.14;94.60
84746;BME280;74975;51.922;6.480;2024-02-04T10:41:49;102073.00;;;10.15;94.55
84746;BME280;74975;51.922;6.480;2024-02-04T10:44:21;102068.03;;;10.20;93.61
84746;BME280;74975;51.922;6.480;2024-02-04T10:46:53;102061.94;;;10.28;93.06
84746;BME280;74975;51.922;6.480;2024-02-04T10:49:20;102056.69;;;10.36;93.53
84746;BME280;74975;51.922;6.480;2024-02-04T10:51:49;102062.59;;;10.38;92.31
84746;BME280;74975;51.922;6.480;2024-02-04T10:54:16;102065.53;;;10.43;91.60
84746;BME280;74975;51.922;6.480;2024-02-04T10:56:48;102068.63;;;10.46;91.86
84746;BME280;74975;51.922;6.480;2024-02-04T10:59:22;102066.50;;;10.50;92.20
84746;BME280;74975;51.922;6.480;2024-02-04T11:01:53;102055.97;;;10.50;92.49
84746;BME280;74975;51.922;6.480;2024-02-04T11:04:18;102061.06;;;10.51;92.49
84746;BME280;74975;51.922;6.480;2024-02-04T11:06:45;102055.13;;;10.57;92.55
84746;BME280;74975;51.922;6.480;2024-02-04T11:09:17;102053.63;;;10.63;91.68
84746;BME280;74975;51.922;6.480;2024-02-04T11:11:44;102055.09;;;10.66;91.30
84746;BME280;74975;51.922;6.480;2024-02-04T11:14:19;102045.03;;;10.69;91.76
84746;BME280;74975;51.922;6.480;2024-02-04T11:22:40;102039.09;;;10.75;90.27
84746;BME280;74975;51.922;6.480;2024-02-04T11:25:36;102042.41;;;10.69;91.55
84746;BME280;74975;51.922;6.480;2024-02-04T11:28:12;102042.41;;;10.69;91.22
84746;BME280;74975;51.922;6.480;2024-02-04T11:30:42;102038.44;;;10.73;91.09
84746;BME280;74975;51.922;6.480;2024-02-04T11:33:12;102036.78;;;10.72;91.47
84746;BME280;74975;51.922;6.480;2024-02-04T11:35:45;102036.47;;;10.67;91.75
84746;BME280;74975;51.922;6.480;2024-02-04T11:38:11;102032.88;;;10.68;89.54
84746;BME280;74975;51.922;6.480;2024-02-04T11:40:41;102027.91;;;10.73;89.75
84746;BME280;74975;51.922;6.480;2024-02-04T11:43:18;102022.97;;;10.70;88.89
84746;BME280;74975;51.922;6.480;2024-02-04T11:45:51;102028.59;;;10.67;89.52
84746;BME280;74975;51.922;6.480;2024-02-04T11:48:17;102043.44;;;10.60;91.63
84746;BME280;74975;51.922;6.480;2024-02-04T11:50:43;102039.06;;;10.36;92.73
84746;BME280;74975;51.922;6.480;2024-02-04T11:53:12;102030.03;;;10.31;93.81
84746;BME280;74975;51.922;6.480;2024-02-04T11:55:54;102032.38;;;10.18;95.02
84746;BME280;74975;51.922;6.480;2024-02-04T11:58:29;102037.44;;;10.11;96.05
84746;BME280;74975;51.922;6.480;2024-02-04T12:00:59;102045.53;;;10.10;98.21
84746;BME280;74975;51.922;6.480;2024-02-04T12:03:33;102034.34;;;10.00;97.97
84746;BME280;74975;51.922;6.480;2024-02-04T12:06:04;102024.16;;;10.05;98.61
84746;BME280;74975;51.922;6.480;2024-02-04T12:08:37;102030.72;;;10.01;98.30
84746;BME280;74975;51.922;6.480;2024-02-04T12:11:05;102030.41;;;9.95;98.67
84746;BME280;74975;51.922;6.480;2024-02-04T12:13:36;102014.16;;;9.92;99.00
84746;BME280;74975;51.922;6.480;2024-02-04T12:16:09;102003.44;;;9.93;98.98
84746;BME280;74975;51.922;6.480;2024-02-04T12:18:47;101991.78;;;9.96;99.31
84746;BME280;74975;51.922;6.480;2024-02-04T12:21:17;101992.28;;;10.00;99.77
84746;BME280;74975;51.922;6.480;2024-02-04T12:24:03;101995.88;;;10.07;100.00
84746;BME280;74975;51.922;6.480;2024-02-04T12:26:34;101994.84;;;10.08;100.00
84746;BME280;74975;51.922;6.480;2024-02-04T12:29:20;101993.38;;;10.05;100.00
84746;BME280;74975;51.922;6.480;2024-02-04T12:31:46;101993.69;;;10.10;100.00
84746;BME280;74975;51.922;6.480;2024-02-04T12:34:20;101985.69;;;10.12;100.00
84746;BME280;74975;51.922;6.480;2024-02-04T12:36:56;101977.94;;;10.18;99.99
84746;BME280;74975;51.922;6.480;2024-02-04T12:39:22;101977.09;;;10.18;100.00
84746;BME280;74975;51.922;6.480;2024-02-04T12:41:51;101976.31;;;10.17;99.93
84746;BME280;74975;51.922;6.480;2024-02-04T12:44:22;101967.75;;;10.07;100.00
84746;BME280;74975;51.922;6.480;2024-02-04T12:46:51;101977.13;;;10.10;100.00
84746;BME280;74975;51.922;6.480;2024-02-04T12:49:22;101966.41;;;10.11;100.00
84746;BME280;74975;51.922;6.480;2024-02-04T12:51:48;101982.19;;;10.11;100.00
84746;BME280;74975;51.922;6.480;2024-02-04T12:54:14;101966.41;;;10.11;100.00
84746;BME280;74975;51.922;6.480;2024-02-04T12:56:53;101963.47;;;10.06;100.00
84746;BME280;74975;51.922;6.480;2024-02-04T12:59:33;101972.66;;;10.10;100.00
84746;BME280;74975;51.922;6.480;2024-02-04T13:02:23;101982.72;;;10.15;100.00
84746;BME280;74975;51.922;6.480;2024-02-04T13:04:53;101991.41;;;10.15;100.00
84746;BME280;74975;51.922;6.480;2024-02-04T13:07:22;101987.81;;;10.16;99.99
84746;BME280;74975;51.922;6.480;2024-02-04T13:10:00;101979.44;;;10.13;99.53
84746;BME280;74975;51.922;6.480;2024-02-04T13:12:25;101992.72;;;10.11;100.00
84746;BME280;74975;51.922;6.480;2024-02-04T13:14:51;101985.00;;;10.10;100.00
84746;BME280;74975;51.922;6.480;2024-02-04T13:17:16;101987.78;;;10.08;100.00
84746;BME280;74975;51.922;6.480;2024-02-04T13:19:44;101980.44;;;10.12;100.00
84746;BME280;74975;51.922;6.480;2024-02-04T13:22:14;101964.31;;;10.15;99.96
84746;BME280;74975;51.922;6.480;2024-02-04T13:24:43;101956.56;;;10.13;99.17
84746;BME280;74975;51.922;6.480;2024-02-04T13:27:15;101966.28;;;10.13;99.77
84746;BME280;74975;51.922;6.480;2024-02-04T13:29:42;101962.13;;;10.10;99.35
84746;BME280;74975;51.922;6.480;2024-02-04T13:32:12;101963.66;;;10.05;99.60
84746;BME280;74975;51.922;6.480;2024-02-04T13:34:46;101965.63;;;10.03;98.95
84746;BME280;74975;51.922;6.480;2024-02-04T13:37:12;101973.16;;;10.06;99.59
84746;BME280;74975;51.922;6.480;2024-02-04T13:39:41;101965.44;;;10.04;99.03
84746;BME280;74975;51.922;6.480;2024-02-04T13:42:07;101967.44;;;10.02;99.23
84746;BME280;74975;51.922;6.480;2024-02-04T13:44:33;101958.72;;;10.02;99.33
84746;BME280;74975;51.922;6.480;2024-02-04T13:47:02;101959.88;;;9.99;99.48
84746;BME280;74975;51.922;6.480;2024-02-04T13:49:31;101939.34;;;10.03;99.34
84746;BME280;74975;51.922;6.480;2024-02-04T13:51:56;101916.94;;;10.07;98.83
84746;BME280;74975;51.922;6.480;2024-02-04T13:54:29;101918.22;;;10.11;99.19
84746;BME280;74975;51.922;6.480;2024-02-04T13:56:58;101935.03;;;10.10;98.50
84746;BME280;74975;51.922;6.480;2024-02-04T13:59:25;101933.19;;;10.10;99.25
84746;BME280;74975;51.922;6.480;2024-02-04T14:01:53;101934.34;;;10.08;98.09
84746;BME280;74975;51.922;6.480;2024-02-04T14:04:22;101953.47;;;10.02;99.65
84746;BME280;74975;51.922;6.480;2024-02-04T14:06:51;101945.06;;;9.98;99.18
84746;BME280;74975;51.922;6.480;2024-02-04T14:09:19;101951.16;;;9.98;99.29
84746;BME280;74975;51.922;6.480;2024-02-04T14:11:45;101960.84;;;9.98;99.64
84746;BME280;74975;51.922;6.480;2024-02-04T14:14:14;101953.16;;;9.96;100.00